createdAt,value
2023-04-02T00:02:18.159Z,9.37
2023-04-02T00:04:45.135Z,9.23
2023-04-02T00:07:31.161Z,6.67
2023-04-02T00:09:58.181Z,6.17
2023-04-02T00:12:25.032Z,9.63
2023-04-02T00:14:54.563Z,7.03
2023-04-02T00:17:24.685Z,7.10
2023-04-02T00:19:51.673Z,5.73
2023-04-02T00:22:21.206Z,7.37
2023-04-02T00:24:51.949Z,7.03
2023-04-02T00:27:19.374Z,5.83
2023-04-02T00:29:54.614Z,5.60
2023-04-02T00:32:29.875Z,6.10
2023-04-02T00:34:58.008Z,5.83
2023-04-02T00:37:28.539Z,7.33
2023-04-02T00:40:01.019Z,7.20
2023-04-02T00:42:31.169Z,6.67
2023-04-02T00:44:59.330Z,6.17
2023-04-02T00:47:32.051Z,6.67
2023-04-02T00:50:19.286Z,6.73
2023-04-02T00:52:49.267Z,7.67
2023-04-02T00:55:23.893Z,8.57
2023-04-02T00:57:51.696Z,7.70
2023-04-02T01:00:18.697Z,8.17
2023-04-02T01:03:17.252Z,9.63
2023-04-02T01:05:47.925Z,7.87
2023-04-02T01:08:43.106Z,8.63
2023-04-02T01:11:37.932Z,8.37
2023-04-02T01:14:23.677Z,8.00
2023-04-02T01:16:50.755Z,7.53
2023-04-02T01:20:00.991Z,7.97
2023-04-02T01:22:35.217Z,8.93
2023-04-02T01:25:04.561Z,9.57
2023-04-02T01:27:45.018Z,10.13
2023-04-02T01:30:12.651Z,9.40
2023-04-02T01:32:41.073Z,9.47
2023-04-02T01:35:09.642Z,10.03
2023-04-02T01:37:57.538Z,10.57
2023-04-02T01:40:36.445Z,10.03
2023-04-02T01:43:25.132Z,9.73
2023-04-02T01:45:53.088Z,11.77
2023-04-02T01:48:25.047Z,10.53
2023-04-02T01:50:55.169Z,10.73
2023-04-02T01:53:23.466Z,10.27
2023-04-02T01:55:54.220Z,9.20
2023-04-02T01:58:27.225Z,9.03
2023-04-02T02:01:06.844Z,8.03
2023-04-02T02:03:34.371Z,8.13
2023-04-02T02:06:05.970Z,7.37
2023-04-02T02:08:52.243Z,7.80
2023-04-02T02:11:22.270Z,8.03
2023-04-02T02:13:54.657Z,9.10
2023-04-02T02:16:22.146Z,8.17
2023-04-02T02:18:51.868Z,11.47
2023-04-02T02:21:27.571Z,9.90
2023-04-02T02:23:55.645Z,8.93
2023-04-02T02:26:23.593Z,7.77
2023-04-02T02:28:53.740Z,10.27
2023-04-02T02:31:28.025Z,11.80
2023-04-02T02:34:01.970Z,9.67
2023-04-02T02:36:40.091Z,10.53
2023-04-02T02:39:22.490Z,9.60
2023-04-02T02:41:57.179Z,7.30
2023-04-02T02:44:48.958Z,7.13
2023-04-02T02:47:22.496Z,8.33
2023-04-02T02:50:00.509Z,7.10
2023-04-02T02:52:31.802Z,7.43
2023-04-02T02:55:16.382Z,6.73
2023-04-02T02:58:09.797Z,8.13
2023-04-02T03:00:46.152Z,7.73
2023-04-02T03:03:22.058Z,9.30
2023-04-02T03:05:54.440Z,8.90
2023-04-02T03:08:28.771Z,7.40
2023-04-02T03:11:20.260Z,9.00
2023-04-02T03:13:49.798Z,10.10
2023-04-02T03:16:28.784Z,9.17
2023-04-02T03:19:04.798Z,10.67
2023-04-02T03:21:39.151Z,11.27
2023-04-02T03:24:13.771Z,16.27
2023-04-02T03:26:44.384Z,14.20
2023-04-02T03:29:17.884Z,14.67
2023-04-02T03:31:57.008Z,14.03
2023-04-02T03:34:33.068Z,13.97
2023-04-02T03:37:08.066Z,13.13
2023-04-02T03:39:43.142Z,14.83
2023-04-02T03:42:26.373Z,15.13
2023-04-02T03:45:01.345Z,14.80
2023-04-02T03:47:31.241Z,13.53
2023-04-02T03:50:17.935Z,14.70
2023-04-02T03:52:45.262Z,14.80
2023-04-02T03:55:23.751Z,12.07
2023-04-02T03:58:09.809Z,13.37
2023-04-02T04:00:45.074Z,12.30
2023-04-02T04:03:15.493Z,14.77
2023-04-02T04:05:56.141Z,15.97
2023-04-02T04:08:42.502Z,12.93
2023-04-02T04:11:15.001Z,12.00
2023-04-02T04:13:46.068Z,9.50
2023-04-02T04:16:40.503Z,9.73
2023-04-02T04:19:22.673Z,10.57
2023-04-02T04:21:54.021Z,11.67
2023-04-02T04:24:25.164Z,11.53
2023-04-02T04:27:04.223Z,13.67
2023-04-02T04:29:49.536Z,12.70
2023-04-02T04:32:27.945Z,13.00
2023-04-02T04:35:27.027Z,11.43
2023-04-02T04:37:59.342Z,12.23
2023-04-02T04:40:30.162Z,13.00
2023-04-02T04:43:05.985Z,14.70
2023-04-02T04:45:52.253Z,14.70
2023-04-02T04:48:26.839Z,13.10
2023-04-02T04:51:17.699Z,14.50
2023-04-02T04:53:50.855Z,17.67
2023-04-02T04:56:27.126Z,13.23
2023-04-02T04:59:07.372Z,13.70
2023-04-02T05:01:44.060Z,12.17
2023-04-02T05:04:23.704Z,12.63
2023-04-02T05:07:13.683Z,10.57
2023-04-02T05:09:51.020Z,11.30
2023-04-02T05:12:32.064Z,11.07
2023-04-02T05:15:31.832Z,9.33
2023-04-02T05:18:11.691Z,11.70
2023-04-02T05:20:52.801Z,15.83
2023-04-02T05:23:28.485Z,15.10
2023-04-02T05:26:07.114Z,13.60
2023-04-02T05:28:46.579Z,14.13
2023-04-02T05:31:26.731Z,12.30
2023-04-02T05:33:55.351Z,9.27
2023-04-02T05:36:25.772Z,11.50
2023-04-02T05:38:57.765Z,12.27
2023-04-02T05:41:38.514Z,10.70
2023-04-02T05:44:24.430Z,8.97
2023-04-02T05:46:56.436Z,11.63
2023-04-02T05:49:33.711Z,10.37
2023-04-02T05:52:03.356Z,10.07
2023-04-02T05:54:40.188Z,12.17
2023-04-02T05:57:15.882Z,11.30
2023-04-02T05:59:55.116Z,10.37
2023-04-02T06:02:31.169Z,11.40
2023-04-02T06:05:05.537Z,10.03
2023-04-02T06:07:45.171Z,10.70
2023-04-02T06:10:32.647Z,12.00
2023-04-02T06:13:09.195Z,9.57
2023-04-02T06:15:40.503Z,11.97
2023-04-02T06:18:23.122Z,9.37
2023-04-02T06:20:51.751Z,13.10
2023-04-02T06:23:24.350Z,10.83
2023-04-02T06:26:04.978Z,11.67
2023-04-02T06:28:46.774Z,11.73
2023-04-02T06:31:22.169Z,15.53
2023-04-02T06:33:55.055Z,12.97
2023-04-02T06:36:29.480Z,11.33
2023-04-02T06:39:08.333Z,11.97
2023-04-02T06:41:36.510Z,10.73
2023-04-02T06:44:28.351Z,14.47
2023-04-02T06:47:20.192Z,14.13
2023-04-02T06:50:07.613Z,15.00
2023-04-02T06:53:02.316Z,17.90
2023-04-02T06:55:51.981Z,15.43
2023-04-02T06:58:25.074Z,14.00
2023-04-02T07:00:58.024Z,16.43
2023-04-02T07:03:36.704Z,14.47
2023-04-02T07:06:18.649Z,16.40
2023-04-02T07:08:50.726Z,15.27
2023-04-02T07:11:22.395Z,15.53
2023-04-02T07:13:52.151Z,15.97
2023-04-02T07:16:22.270Z,17.90
2023-04-02T07:18:49.473Z,14.60
2023-04-02T07:21:17.001Z,15.47
2023-04-02T07:23:44.858Z,19.47
2023-04-02T07:26:17.395Z,12.57
2023-04-02T07:28:44.915Z,14.10
2023-04-02T07:31:18.967Z,12.37
2023-04-02T07:33:46.402Z,8.47
2023-04-02T07:36:16.098Z,10.57
2023-04-02T07:38:43.558Z,9.77
2023-04-02T07:41:11.722Z,11.30
2023-04-02T07:43:39.020Z,9.53
2023-04-02T07:46:06.951Z,6.90
2023-04-02T07:48:34.074Z,7.20
2023-04-02T07:51:03.551Z,7.27
2023-04-02T07:53:35.783Z,9.07
2023-04-02T07:56:03.587Z,9.27
2023-04-02T07:58:31.103Z,8.77
2023-04-02T08:00:58.458Z,7.90
2023-04-02T08:03:26.027Z,9.53
2023-04-02T08:05:58.164Z,8.23
2023-04-02T08:08:26.059Z,7.87
2023-04-02T08:10:53.056Z,8.73
2023-04-02T08:13:20.869Z,7.50
2023-04-02T08:15:47.953Z,9.73
2023-04-02T08:18:14.911Z,6.80
2023-04-02T08:20:41.695Z,7.93
2023-04-02T08:23:17.191Z,8.30
2023-04-02T08:25:47.517Z,7.43
2023-04-02T08:28:14.511Z,8.00
2023-04-02T08:30:42.715Z,8.70
2023-04-02T08:33:10.098Z,10.43
2023-04-02T08:35:37.469Z,8.40
2023-04-02T08:38:05.261Z,10.13
2023-04-02T08:40:38.754Z,10.47
2023-04-02T08:43:20.338Z,8.77
2023-04-02T08:45:57.183Z,10.20
2023-04-02T08:48:26.781Z,12.73
2023-04-02T08:50:54.887Z,13.23
2023-04-02T08:53:30.917Z,10.83
2023-04-02T08:56:06.039Z,10.30
2023-04-02T08:58:42.483Z,11.93
2023-04-02T09:01:35.539Z,17.33
2023-04-02T09:04:05.458Z,13.17
2023-04-02T09:06:35.049Z,10.77
2023-04-02T09:09:05.676Z,9.30
2023-04-02T09:11:49.072Z,12.47
2023-04-02T09:14:21.870Z,11.97
2023-04-02T09:16:55.907Z,8.27
2023-04-02T09:19:26.881Z,13.60
2023-04-02T09:22:06.129Z,9.43
2023-04-02T09:24:33.675Z,8.00
2023-04-02T09:27:00.819Z,9.33
2023-04-02T09:29:41.396Z,7.90
2023-04-02T09:32:18.821Z,7.03
2023-04-02T09:34:45.858Z,9.07
2023-04-02T09:37:23.060Z,9.17
2023-04-02T09:39:49.984Z,9.20
2023-04-02T09:42:35.012Z,9.20
2023-04-02T09:45:20.758Z,8.10
2023-04-02T09:47:48.098Z,9.87
2023-04-02T09:50:15.034Z,9.20
2023-04-02T09:52:45.434Z,7.47
2023-04-02T09:55:23.023Z,8.77
2023-04-02T09:57:50.782Z,6.07
2023-04-02T10:00:32.048Z,8.53
2023-04-02T10:03:03.768Z,7.93
2023-04-02T10:05:40.476Z,8.87
2023-04-02T10:08:20.122Z,6.20
2023-04-02T10:10:50.494Z,7.63
2023-04-02T10:13:23.693Z,6.27
2023-04-02T10:16:04.347Z,7.60
2023-04-02T10:18:40.141Z,8.67
2023-04-02T10:21:08.556Z,6.30
2023-04-02T10:23:35.391Z,7.20
2023-04-02T10:26:28.274Z,7.53
2023-04-02T10:29:01.143Z,12.20
2023-04-02T10:31:41.269Z,11.87
2023-04-02T10:34:15.787Z,7.33
2023-04-02T10:36:51.768Z,6.47
2023-04-02T10:39:40.507Z,6.07
2023-04-02T10:42:31.963Z,9.80
2023-04-02T10:45:18.639Z,8.03
2023-04-02T10:48:03.802Z,5.33
2023-04-02T10:50:32.426Z,8.50
2023-04-02T10:53:17.297Z,6.93
2023-04-02T10:55:48.786Z,6.07
2023-04-02T10:58:25.929Z,7.73
2023-04-02T11:00:57.173Z,7.17
2023-04-02T11:03:37.556Z,6.13
2023-04-02T11:06:14.647Z,7.10
2023-04-02T11:08:44.464Z,6.13
2023-04-02T11:11:22.677Z,4.63
2023-04-02T11:14:01.562Z,6.63
2023-04-02T11:16:28.984Z,5.47
2023-04-02T11:19:14.859Z,5.80
2023-04-02T11:21:58.025Z,5.93
2023-04-02T11:24:26.076Z,4.67
2023-04-02T11:26:54.972Z,5.47
2023-04-02T11:29:31.075Z,6.73
2023-04-02T11:32:27.548Z,6.77
2023-04-02T11:35:35.716Z,6.50
2023-04-02T11:38:11.430Z,11.77
2023-04-02T11:40:55.172Z,5.13
2023-04-02T11:43:34.523Z,5.13
2023-04-02T11:46:21.048Z,6.10
2023-04-02T11:48:48.402Z,7.10
2023-04-02T11:51:23.402Z,4.97
2023-04-02T11:53:51.788Z,4.90
2023-04-02T11:56:21.988Z,6.73
2023-04-02T11:59:35.736Z,4.97
2023-04-02T12:02:21.883Z,7.07
2023-04-02T12:05:19.832Z,7.77
2023-04-02T12:08:08.457Z,4.57
2023-04-02T12:10:55.397Z,6.47
2023-04-02T12:13:42.500Z,7.67
2023-04-02T12:16:13.245Z,4.50
2023-04-02T12:18:55.399Z,5.03
2023-04-02T12:21:26.136Z,6.57
2023-04-02T12:23:56.258Z,4.77
2023-04-02T12:26:37.550Z,5.27
2023-04-02T12:29:27.316Z,4.17
2023-04-02T12:31:58.752Z,4.97
2023-04-02T12:34:28.408Z,5.37
2023-04-02T12:37:04.904Z,3.33
2023-04-02T12:39:33.761Z,2.30
2023-04-02T12:42:00.880Z,4.33
2023-04-02T12:44:29.461Z,3.70
2023-04-02T12:46:57.336Z,6.30
2023-04-02T12:49:40.210Z,6.73
2023-04-02T12:52:18.553Z,5.10
2023-04-02T12:54:57.235Z,6.63
2023-04-02T12:57:27.157Z,8.63
2023-04-02T12:59:55.625Z,4.87
2023-04-02T13:02:24.654Z,5.50
2023-04-02T13:04:53.765Z,8.07
2023-04-02T13:07:23.027Z,6.17
2023-04-02T13:09:52.376Z,7.90
2023-04-02T13:12:38.737Z,3.67
2023-04-02T13:15:23.572Z,5.33
2023-04-02T13:18:19.225Z,4.63
2023-04-02T13:21:03.372Z,4.70
2023-04-02T13:23:30.407Z,5.47
2023-04-02T13:26:03.059Z,3.70
2023-04-02T13:28:29.892Z,5.10
2023-04-02T13:30:56.673Z,6.73
2023-04-02T13:33:23.898Z,4.00
2023-04-02T13:35:53.616Z,3.63
2023-04-02T13:38:20.916Z,5.60
2023-04-02T13:40:47.806Z,3.30
2023-04-02T13:43:19.237Z,6.63
2023-04-02T13:45:50.894Z,5.87
2023-04-02T13:48:19.682Z,3.70
2023-04-02T13:50:47.002Z,4.47
2023-04-02T13:53:25.235Z,6.90
2023-04-02T13:55:52.674Z,3.57
2023-04-02T13:58:19.612Z,7.27
2023-04-02T14:00:47.671Z,3.13
2023-04-02T14:03:18.561Z,3.40
2023-04-02T14:05:53.770Z,5.70
2023-04-02T14:08:33.486Z,4.30
2023-04-02T14:11:28.104Z,4.27
2023-04-02T14:14:24.601Z,5.40
2023-04-02T14:16:57.430Z,3.70
2023-04-02T14:19:30.109Z,3.07
2023-04-02T14:22:15.600Z,8.27
2023-04-02T14:24:45.481Z,3.70
2023-04-02T14:27:30.968Z,7.03
2023-04-02T14:30:42.964Z,5.00
2023-04-02T14:33:37.324Z,3.97
2023-04-02T14:36:15.976Z,2.90
2023-04-02T14:39:06.525Z,4.43
2023-04-02T14:42:02.747Z,4.13
2023-04-02T14:44:37.184Z,5.87
2023-04-02T14:47:25.699Z,7.07
2023-04-02T14:50:19.458Z,5.50
2023-04-02T14:52:50.471Z,6.57
2023-04-02T14:55:33.529Z,6.80
2023-04-02T14:58:04.222Z,2.83
2023-04-02T15:00:40.476Z,7.90
2023-04-02T15:03:31.394Z,5.63
2023-04-02T15:06:06.511Z,4.43
2023-04-02T15:08:35.347Z,3.67
2023-04-02T15:11:08.938Z,2.13
2023-04-02T15:13:54.303Z,6.13
2023-04-02T15:16:24.616Z,5.57
2023-04-02T15:18:59.635Z,3.03
2023-04-02T15:21:56.052Z,4.93
2023-04-02T15:24:51.794Z,4.77
2023-04-02T15:27:34.518Z,3.50
2023-04-02T15:30:01.437Z,8.67
2023-04-02T15:32:34.596Z,3.73
2023-04-02T15:35:08.416Z,3.07
2023-04-02T15:37:46.400Z,4.70
2023-04-02T15:40:19.721Z,4.77
2023-04-02T15:42:55.310Z,5.03
2023-04-02T15:46:00.685Z,3.97
2023-04-02T15:48:48.320Z,5.43
2023-04-02T15:51:39.917Z,3.93
2023-04-02T15:54:46.031Z,5.27
2023-04-02T15:57:23.925Z,4.10
2023-04-02T15:59:57.191Z,6.50
2023-04-02T16:02:55.131Z,2.83
2023-04-02T16:05:41.042Z,6.13
2023-04-02T16:08:13.919Z,4.77
2023-04-02T16:10:43.000Z,2.37
2023-04-02T16:13:22.805Z,2.50
2023-04-02T16:16:17.547Z,3.37
2023-04-02T16:19:05.293Z,3.70
2023-04-02T16:22:10.779Z,3.97
2023-04-02T16:24:38.173Z,3.60
2023-04-02T16:27:37.856Z,3.13
2023-04-02T16:30:23.069Z,4.63
2023-04-02T16:32:56.835Z,3.37
2023-04-02T16:35:42.432Z,1.37
2023-04-02T16:38:31.020Z,1.80
2023-04-02T16:41:23.580Z,4.37
2023-04-02T16:44:32.037Z,4.00
2023-04-02T16:47:21.605Z,4.73
2023-04-02T16:50:33.951Z,3.87
2023-04-02T16:53:23.245Z,3.20
2023-04-02T16:56:33.816Z,3.00
2023-04-02T16:59:07.613Z,3.17
2023-04-02T17:01:44.538Z,4.07
2023-04-02T17:04:46.856Z,3.00
2023-04-02T17:07:40.366Z,4.00
2023-04-02T17:10:30.557Z,3.00
2023-04-02T17:13:03.695Z,6.03
2023-04-02T17:15:39.137Z,3.13
2023-04-02T17:18:20.245Z,2.77
2023-04-02T17:20:48.200Z,2.97
2023-04-02T17:23:16.334Z,3.30
2023-04-02T17:25:48.916Z,3.67
2023-04-02T17:28:19.628Z,3.07
2023-04-02T17:30:49.854Z,3.47
2023-04-02T17:33:18.568Z,3.53
2023-04-02T17:36:08.542Z,4.10
2023-04-02T17:38:58.188Z,2.17
2023-04-02T17:41:42.791Z,4.20
2023-04-02T17:44:33.644Z,4.00
2023-04-02T17:47:09.406Z,4.97
2023-04-02T17:49:55.451Z,2.67
2023-04-02T17:52:25.920Z,2.30
2023-04-02T17:55:21.166Z,2.67
2023-04-02T17:58:11.643Z,2.13
2023-04-02T18:00:57.673Z,4.37
2023-04-02T18:03:36.966Z,4.80
2023-04-02T18:06:19.459Z,3.27
2023-04-02T18:08:54.042Z,3.23
2023-04-02T18:11:38.205Z,3.27
2023-04-02T18:14:33.315Z,4.60
2023-04-02T18:17:21.534Z,3.33
2023-04-02T18:19:54.790Z,2.83
2023-04-02T18:22:23.944Z,2.27
2023-04-02T18:24:56.738Z,6.03
2023-04-02T18:27:38.588Z,4.50
2023-04-02T18:30:09.457Z,4.83
2023-04-02T18:32:56.338Z,5.07
2023-04-02T18:35:41.301Z,6.30
2023-04-02T18:38:29.623Z,3.20
2023-04-02T18:41:03.026Z,2.17
2023-04-02T18:43:43.214Z,3.67
2023-04-02T18:46:31.813Z,3.67
2023-04-02T18:49:06.224Z,7.53
2023-04-02T18:51:36.704Z,3.73
2023-04-02T18:54:09.417Z,3.53
2023-04-02T18:56:39.825Z,3.03
2023-04-02T18:59:06.541Z,4.17
2023-04-02T19:04:26.488Z,2.63
2023-04-02T19:07:33.093Z,4.60
2023-04-02T19:10:09.259Z,3.57
2023-04-02T19:12:55.433Z,4.20
2023-04-02T19:15:44.018Z,6.23
2023-04-02T19:18:32.408Z,4.40
2023-04-02T19:21:41.981Z,3.50
2023-04-02T19:24:34.509Z,4.37
2023-04-02T19:27:25.701Z,4.10
2023-04-02T19:30:05.196Z,7.13
2023-04-02T19:32:53.663Z,3.63
2023-04-02T19:35:41.978Z,6.10
2023-04-02T19:38:42.640Z,4.73
2023-04-02T19:41:35.282Z,4.07
2023-04-02T19:44:02.681Z,3.30
2023-04-02T19:46:30.559Z,3.57
2023-04-02T19:49:17.632Z,4.43
2023-04-02T19:51:44.877Z,4.73
2023-04-02T19:54:14.123Z,6.67
2023-04-02T19:56:42.527Z,6.50
2023-04-02T19:59:17.985Z,7.20
2023-04-02T20:01:47.185Z,5.87
2023-04-02T20:04:14.511Z,5.00
2023-04-02T20:06:41.469Z,5.40
2023-04-02T20:09:08.844Z,8.87
2023-04-02T20:11:37.439Z,5.60
2023-04-02T20:14:04.788Z,4.63
2023-04-02T20:16:32.811Z,7.00
2023-04-02T20:18:59.956Z,7.03
2023-04-02T20:21:27.586Z,4.63
2023-04-02T20:23:55.875Z,9.67
2023-04-02T20:26:23.310Z,8.30
2023-04-02T20:28:50.150Z,7.50
2023-04-02T20:31:18.843Z,8.30
2023-04-02T20:33:46.787Z,8.87
2023-04-02T20:36:15.993Z,4.87
2023-04-02T20:38:43.485Z,4.30
2023-04-02T20:41:10.443Z,8.90
2023-04-02T20:43:40.491Z,5.43
2023-04-02T20:46:10.091Z,9.33
2023-04-02T20:48:37.902Z,10.60
2023-04-02T20:51:06.812Z,8.93
2023-04-02T20:53:35.371Z,8.53
2023-04-02T20:56:07.019Z,8.67
2023-04-02T20:58:35.490Z,6.77
2023-04-02T21:01:11.984Z,7.50
2023-04-02T21:03:40.701Z,9.13
2023-04-02T21:06:19.060Z,6.80
2023-04-02T21:08:46.412Z,8.10
2023-04-02T21:11:14.100Z,9.93
2023-04-02T21:13:43.936Z,10.73
2023-04-02T21:16:20.412Z,7.40
2023-04-02T21:18:49.703Z,7.90
2023-04-02T21:21:16.725Z,5.73
2023-04-02T21:23:44.498Z,7.57
2023-04-02T21:26:17.120Z,9.23
2023-04-02T21:28:45.303Z,8.20
2023-04-02T21:31:18.389Z,9.70
2023-04-02T21:33:48.025Z,5.63
2023-04-02T21:36:17.553Z,7.33
2023-04-02T21:38:56.125Z,9.83
2023-04-02T21:41:26.527Z,5.27
2023-04-02T21:43:55.650Z,11.10
2023-04-02T21:46:26.116Z,7.77
2023-04-02T21:48:54.743Z,7.77
2023-04-02T21:51:24.175Z,9.77
2023-04-02T21:53:54.173Z,7.77
2023-04-02T21:56:29.022Z,8.13
2023-04-02T21:58:57.384Z,6.27
2023-04-02T22:01:28.021Z,6.73
2023-04-02T22:03:56.974Z,5.23
2023-04-02T22:06:25.915Z,6.77
2023-04-02T22:08:55.478Z,5.60
2023-04-02T22:11:26.087Z,8.53
2023-04-02T22:13:53.127Z,5.87
2023-04-02T22:16:25.006Z,10.23
2023-04-02T22:18:53.294Z,4.50
2023-04-02T22:21:20.899Z,6.17
2023-04-02T22:23:49.000Z,5.17
2023-04-02T22:26:17.363Z,6.13
2023-04-02T22:28:44.491Z,10.53
2023-04-02T22:31:17.197Z,7.10
2023-04-02T22:33:45.427Z,9.40
2023-04-02T22:36:13.553Z,7.43
2023-04-02T22:38:41.197Z,7.50
2023-04-02T22:41:13.238Z,5.90
2023-04-02T22:43:41.365Z,4.53
2023-04-02T22:46:09.047Z,7.03
2023-04-02T22:48:36.620Z,7.27
2023-04-02T22:51:03.423Z,5.60
2023-04-02T22:53:30.829Z,6.17
2023-04-02T22:56:11.432Z,5.17
2023-04-02T22:58:38.851Z,9.53
2023-04-02T23:01:06.973Z,9.63
2023-04-02T23:03:34.653Z,8.43
2023-04-02T23:06:04.196Z,8.37
2023-04-02T23:08:31.513Z,6.93
2023-04-02T23:11:03.347Z,8.90
2023-04-02T23:13:31.685Z,9.87
2023-04-02T23:16:01.194Z,5.47
2023-04-02T23:18:29.321Z,6.67
2023-04-02T23:20:56.466Z,4.70
2023-04-02T23:23:24.299Z,5.53
2023-04-02T23:25:51.406Z,6.53
2023-04-02T23:28:18.461Z,5.60
2023-04-02T23:30:45.688Z,7.63
2023-04-02T23:33:12.710Z,4.90
2023-04-02T23:35:39.657Z,5.33
2023-04-02T23:38:07.866Z,9.47
2023-04-02T23:40:35.108Z,7.97
2023-04-02T23:43:02.197Z,5.63
2023-04-02T23:45:29.012Z,6.77
2023-04-02T23:47:55.756Z,5.77
2023-04-02T23:50:22.731Z,5.90
2023-04-02T23:52:49.471Z,7.10
2023-04-02T23:55:17.136Z,8.17
2023-04-02T23:57:43.992Z,8.60
